createdAt,value
2023-01-18T06:58:25.092Z,18.83
2023-01-18T06:59:36.866Z,19.48
2023-01-18T07:00:44.106Z,19.42
2023-01-18T07:01:55.249Z,20.05
2023-01-18T07:03:02.572Z,19.45
2023-01-18T07:04:20.429Z,19.48
2023-01-18T07:05:29.064Z,19.35
2023-01-18T07:06:42.375Z,20.90
2023-01-18T19:47:13.072Z,22.00
2023-01-18T19:48:23.269Z,20.55
2023-01-18T19:49:34.936Z,20.88
2023-01-18T19:50:48.030Z,22.20
2023-01-18T19:52:02.444Z,22.10
2023-01-18T19:53:07.919Z,22.40
2023-01-18T19:54:14.558Z,23.77
2023-01-18T19:55:20.596Z,23.00
2023-01-18T19:56:29.817Z,23.98
2023-01-18T19:57:36.884Z,25.83
2023-01-18T19:58:42.764Z,24.67
2023-01-18T20:01:01.567Z,22.13
2023-01-18T20:02:06.959Z,23.23
2023-01-18T20:03:14.080Z,24.50
2023-01-18T20:04:18.577Z,25.45
2023-01-18T20:05:31.472Z,24.38
2023-01-18T20:08:36.772Z,20.70
2023-01-18T20:09:52.139Z,24.65
2023-01-18T20:11:24.935Z,22.48
2023-01-18T20:17:29.691Z,22.48
2023-01-18T20:18:39.046Z,22.67
2023-01-18T20:21:36.146Z,23.08
2023-01-18T20:22:41.957Z,22.02
2023-01-18T20:23:50.995Z,23.85
2023-01-18T20:24:59.739Z,24.73
2023-01-18T20:26:12.707Z,23.92
2023-01-18T20:27:23.798Z,24.67
2023-01-18T20:28:36.947Z,23.70
2023-01-18T20:29:46.127Z,23.15
2023-01-18T20:30:55.592Z,23.35
2023-01-18T20:32:14.121Z,23.20
2023-01-18T20:33:19.378Z,22.00
2023-01-18T20:34:22.310Z,24.45
2023-01-18T20:36:13.718Z,26.33
2023-01-18T20:42:07.278Z,21.48
2023-01-18T20:43:13.677Z,23.58
2023-01-18T20:44:25.015Z,24.80
2023-01-18T20:45:37.717Z,24.13
2023-01-18T20:46:44.524Z,24.65
2023-01-18T20:47:53.109Z,23.08
2023-01-18T21:48:54.839Z,23.70
2023-01-18T21:50:26.854Z,21.83
2023-01-18T21:51:51.163Z,21.98
